Time;durP1;ratioP1;P1;durP2;ratioP2;P2;SDS_P1;SDS_P2;PMS_P1;PMS_P2;Temp;Humidity;BMP_temperature;BMP_pressure;BME280_temperature;BME280_humidity;BME280_pressure;Samples;Min_cycle;Max_cycle;Signal;HPM_P1;HPM_P2
2023/11/05 00:01:49;;;;;;;0.73;0.73;;;10.90;99.90;;;;;;5014353;28;20210;-93
2023/11/05 00:04:15;;;;;;;0.60;0.60;;;11.00;99.90;;;;;;5029850;28;20527;-93
2023/11/05 00:06:41;;;;;;;0.57;0.57;;;11.00;99.90;;;;;;5045260;28;20275;-93
2023/11/05 00:09:08;;;;;;;0.60;0.43;;;11.10;99.90;;;;;;5012363;28;20319;-94
2023/11/05 00:11:35;;;;;;;1.27;0.87;;;11.00;99.90;;;;;;5029038;28;20300;-91
2023/11/05 00:14:02;;;;;;;0.50;0.50;;;11.00;99.90;;;;;;5012630;28;20221;-93
2023/11/05 00:16:27;;;;;;;0.63;0.63;;;11.10;99.90;;;;;;4996846;28;20202;-91
2023/11/05 00:18:53;;;;;;;0.90;0.90;;;11.10;99.90;;;;;;5028686;28;20217;-93
2023/11/05 00:21:20;;;;;;;2.83;0.53;;;11.10;99.90;;;;;;5028484;28;20210;-92
2023/11/05 00:23:46;;;;;;;1.40;1.17;;;11.10;99.90;;;;;;5011669;28;20223;-92
2023/11/05 00:26:12;;;;;;;1.00;0.57;;;11.10;99.90;;;;;;4995937;28;20225;-94
2023/11/05 00:28:37;;;;;;;1.03;0.93;;;11.10;99.90;;;;;;5011587;28;20296;-92
2023/11/05 00:31:04;;;;;;;0.90;0.90;;;11.10;99.90;;;;;;4996718;28;20179;-93
2023/11/05 00:33:31;;;;;;;0.43;0.43;;;11.10;99.90;;;;;;5028501;28;20213;-92
2023/11/05 00:35:57;;;;;;;0.20;0.20;;;11.10;99.90;;;;;;5027803;28;20256;-93
2023/11/05 00:38:23;;;;;;;0.77;0.73;;;11.10;99.90;;;;;;4996210;28;20885;-94
2023/11/05 00:40:48;;;;;;;5.03;0.97;;;11.10;99.90;;;;;;5020326;28;20191;-94
2023/11/05 00:43:14;;;;;;;0.70;0.70;;;11.10;99.90;;;;;;4996119;28;20194;-91
2023/11/05 00:45:40;;;;;;;0.87;0.87;;;11.10;99.90;;;;;;5011783;28;20678;-93
2023/11/05 00:48:06;;;;;;;1.80;1.50;;;11.10;99.90;;;;;;4995765;28;20591;-92
2023/11/05 00:50:31;;;;;;;5.93;1.03;;;11.00;99.90;;;;;;4995896;28;20206;-92
2023/11/05 00:52:57;;;;;;;0.30;0.30;;;11.10;99.90;;;;;;4995814;28;20202;-92
2023/11/05 00:55:23;;;;;;;0.80;0.80;;;11.00;99.90;;;;;;4995836;28;20224;-94
2023/11/05 00:57:50;;;;;;;2.43;1.20;;;11.00;99.90;;;;;;4995174;28;20215;-91
2023/11/05 01:00:17;;;;;;;1.50;1.17;;;11.10;99.90;;;;;;5011075;28;20326;-93
2023/11/05 01:02:46;;;;;;;3.80;0.80;;;11.00;99.90;;;;;;4995831;28;20214;-93
2023/11/05 01:05:12;;;;;;;1.27;0.97;;;11.00;99.90;;;;;;5011627;28;20221;-91
2023/11/05 01:07:37;;;;;;;4.90;0.97;;;10.90;99.90;;;;;;5044587;28;20182;-93
2023/11/05 01:10:04;;;;;;;1.27;0.57;;;10.80;99.90;;;;;;5012216;28;20182;-91
2023/11/05 01:12:29;;;;;;;1.23;1.13;;;10.70;99.90;;;;;;5010849;28;20300;-94
2023/11/05 01:14:55;;;;;;;8.60;0.70;;;10.70;99.90;;;;;;5028002;28;20304;-93
2023/11/05 01:17:22;;;;;;;1.67;0.67;;;10.60;99.90;;;;;;5017107;28;20225;-92
2023/11/05 01:19:47;;;;;;;1.13;0.77;;;10.50;99.90;;;;;;5019114;28;20270;-90
2023/11/05 01:22:13;;;;;;;1.20;1.03;;;10.50;99.90;;;;;;4995434;28;20194;-91
2023/11/05 01:24:39;;;;;;;2.73;2.63;;;10.50;99.90;;;;;;5011406;28;20221;-91
2023/11/05 01:27:05;;;;;;;0.77;0.73;;;10.50;99.90;;;;;;5011497;28;20210;-92
2023/11/05 01:29:32;;;;;;;0.77;0.47;;;10.50;99.90;;;;;;4995580;28;20693;-91
2023/11/05 01:31:57;;;;;;;1.97;0.60;;;10.40;99.90;;;;;;5044247;28;20264;-92
2023/11/05 01:34:23;;;;;;;3.03;1.43;;;10.40;99.90;;;;;;5013065;28;20186;-94
2023/11/05 01:36:49;;;;;;;0.50;0.50;;;10.40;99.90;;;;;;4994809;28;20206;-92
2023/11/05 01:39:15;;;;;;;1.10;1.07;;;10.40;99.90;;;;;;5011662;28;20302;-92
2023/11/05 01:41:41;;;;;;;0.30;0.30;;;10.30;99.90;;;;;;5019828;28;20268;-92
2023/11/05 01:44:08;;;;;;;0.43;0.43;;;10.30;99.90;;;;;;5026845;28;20222;-92
2023/11/05 01:46:34;;;;;;;0.37;0.37;;;10.40;99.90;;;;;;5019815;28;20225;-91
2023/11/05 01:49:01;;;;;;;0.43;0.43;;;10.40;99.90;;;;;;5015835;28;20186;-93
2023/11/05 01:51:28;;;;;;;2.23;2.03;;;10.40;99.90;;;;;;5015027;28;20649;-93
2023/11/05 01:53:54;;;;;;;4.20;2.17;;;10.50;99.90;;;;;;5022879;28;20691;-92
2023/11/05 01:56:23;;;;;;;1.70;1.57;;;10.40;99.90;;;;;;5015511;28;20230;-92
2023/11/05 01:58:50;;;;;;;3.60;1.17;;;10.30;99.90;;;;;;5047379;28;20238;-92
2023/11/05 02:01:19;;;;;;;3.87;1.73;;;10.30;99.90;;;;;;5032304;28;20178;-93
2023/11/05 02:03:45;;;;;;;0.50;0.50;;;10.30;99.90;;;;;;5031022;28;20210;-93
2023/11/05 02:06:12;;;;;;;0.93;0.73;;;10.30;99.90;;;;;;5031404;28;20746;-94
2023/11/05 02:08:40;;;;;;;1.23;1.23;;;10.20;99.90;;;;;;5031681;28;20214;-93
2023/11/05 02:11:08;;;;;;;0.80;0.80;;;10.20;99.90;;;;;;5048039;28;20666;-94
2023/11/05 02:13:47;;;;;;;2.20;2.07;;;10.10;99.90;;;;;;5030835;28;20186;-94
2023/11/05 02:16:14;;;;;;;1.63;1.40;;;10.10;99.90;;;;;;5031788;28;20214;-93
2023/11/05 02:18:40;;;;;;;2.07;1.70;;;10.00;99.90;;;;;;5024495;28;20228;-93
2023/11/05 02:21:07;;;;;;;10.50;1.63;;;10.00;99.90;;;;;;5037608;28;20214;-93
2023/11/05 02:23:34;;;;;;;1.30;1.13;;;10.00;99.90;;;;;;4998242;28;20258;-92
2023/11/05 02:26:00;;;;;;;2.70;2.50;;;9.90;99.90;;;;;;5014119;28;20293;-91
2023/11/05 02:28:26;;;;;;;2.00;1.63;;;9.90;99.90;;;;;;5030255;28;20187;-90
2023/11/05 02:30:54;;;;;;;1.37;0.87;;;9.90;99.90;;;;;;4998667;28;20317;-93
2023/11/05 02:33:21;;;;;;;4.80;1.07;;;9.90;99.90;;;;;;4998202;28;20233;-91
2023/11/05 02:35:47;;;;;;;20.23;1.37;;;9.80;99.90;;;;;;5031190;28;20558;-92
2023/11/05 02:38:12;;;;;;;5.97;1.50;;;9.90;99.90;;;;;;4998120;28;20237;-93
2023/11/05 02:40:38;;;;;;;1.43;1.07;;;9.80;99.90;;;;;;5014615;28;20269;-92
2023/11/05 02:43:04;;;;;;;0.30;0.20;;;9.80;99.90;;;;;;5014905;28;20251;-91
2023/11/05 02:45:30;;;;;;;1.47;1.07;;;9.70;99.90;;;;;;4997236;28;20234;-92
2023/11/05 02:47:56;;;;;;;1.77;1.17;;;9.70;99.90;;;;;;4998893;28;20256;-92
2023/11/05 02:50:21;;;;;;;1.23;1.20;;;9.70;99.90;;;;;;5013344;28;20612;-93
2023/11/05 02:52:47;;;;;;;0.57;0.43;;;9.70;99.90;;;;;;5014312;28;20191;-93
2023/11/05 02:55:13;;;;;;;1.20;1.20;;;9.60;99.90;;;;;;5022051;28;20557;-92
2023/11/05 02:57:39;;;;;;;0.30;0.30;;;9.60;99.90;;;;;;5012975;28;20248;-92
2023/11/05 03:00:06;;;;;;;0.70;0.70;;;9.60;99.90;;;;;;4997692;28;20221;-94
2023/11/05 03:02:35;;;;;;;1.43;1.33;;;9.60;99.90;;;;;;5013634;28;20218;-92
2023/11/05 03:05:03;;;;;;;0.93;0.47;;;9.70;99.90;;;;;;5030765;28;20234;-91
2023/11/05 03:07:33;;;;;;;2.57;1.50;;;9.60;99.90;;;;;;5031329;28;20233;-92
2023/11/05 03:09:59;;;;;;;0.67;0.67;;;9.60;99.90;;;;;;5047015;28;20233;-93
2023/11/05 03:12:25;;;;;;;4.90;1.70;;;9.70;99.90;;;;;;5030204;28;20276;-91
2023/11/05 03:14:51;;;;;;;0.63;0.57;;;9.60;99.90;;;;;;5013849;28;20218;-92
2023/11/05 03:17:17;;;;;;;0.50;0.50;;;9.60;99.90;;;;;;5014020;28;20260;-92
2023/11/05 03:19:44;;;;;;;1.07;0.97;;;9.50;99.90;;;;;;5030177;28;20265;-92
2023/11/05 03:22:10;;;;;;;0.90;0.90;;;9.60;99.90;;;;;;5013749;28;20183;-93
2023/11/05 03:24:36;;;;;;;0.80;0.80;;;9.60;99.90;;;;;;5013904;28;20576;-93
2023/11/05 03:27:02;;;;;;;2.63;1.77;;;9.70;99.90;;;;;;5046423;28;20268;-91
2023/11/05 03:29:28;;;;;;;0.60;0.60;;;9.70;99.90;;;;;;5014412;28;20249;-91
2023/11/05 03:31:55;;;;;;;0.50;0.50;;;9.70;99.90;;;;;;5029092;28;20252;-92
2023/11/05 03:34:22;;;;;;;0.53;0.50;;;9.80;99.90;;;;;;5014025;28;20559;-91
2023/11/05 03:36:48;;;;;;;0.73;0.73;;;9.90;99.90;;;;;;5030163;28;20226;-93
2023/11/05 03:39:14;;;;;;;2.37;0.80;;;9.90;99.90;;;;;;5012220;28;20219;-92
2023/11/05 03:41:40;;;;;;;1.43;1.00;;;9.90;99.90;;;;;;5014007;28;20265;-92
2023/11/05 03:44:06;;;;;;;0.33;0.33;;;9.90;99.90;;;;;;5038065;28;20214;-92
2023/11/05 03:46:32;;;;;;;0.40;0.40;;;9.90;99.90;;;;;;4997151;28;20313;-91
2023/11/05 03:48:57;;;;;;;0.70;0.70;;;9.80;99.90;;;;;;5013303;28;20217;-92
2023/11/05 03:51:23;;;;;;;0.93;0.33;;;9.80;99.90;;;;;;5018613;28;20681;-92
2023/11/05 03:53:49;;;;;;;0.70;0.70;;;9.80;99.90;;;;;;4997280;28;20242;-91
2023/11/05 03:56:16;;;;;;;1.20;1.10;;;9.80;99.90;;;;;;5029516;28;20297;-91
2023/11/05 03:58:42;;;;;;;3.80;0.73;;;9.70;99.90;;;;;;5028505;28;20288;-93
2023/11/05 04:01:18;;;;;;;1.30;1.20;;;9.80;99.90;;;;;;5029153;28;21325;-92
2023/11/05 04:03:44;;;;;;;1.70;1.13;;;9.80;99.90;;;;;;5028522;28;20344;-92
2023/11/05 04:06:10;;;;;;;0.20;0.20;;;9.80;99.90;;;;;;4996858;28;20218;-91
2023/11/05 04:08:35;;;;;;;2.10;0.97;;;9.80;99.90;;;;;;4997195;28;20294;-92
2023/11/05 04:11:01;;;;;;;0.30;0.30;;;9.70;99.90;;;;;;5037647;28;20269;-91
2023/11/05 04:13:27;;;;;;;0.40;0.40;;;9.70;99.90;;;;;;5013084;28;20182;-91
2023/11/05 04:15:52;;;;;;;0.10;0.10;;;9.70;99.90;;;;;;4997086;28;20229;-92
2023/11/05 04:18:18;;;;;;;0.37;0.27;;;9.70;99.90;;;;;;4995856;28;20222;-92
2023/11/05 04:20:44;;;;;;;0.87;0.87;;;9.70;99.90;;;;;;5029071;28;20210;-94
2023/11/05 04:23:11;;;;;;;1.00;0.97;;;9.70;99.90;;;;;;5010786;28;20215;-93
2023/11/05 04:25:37;;;;;;;0.30;0.23;;;9.70;99.90;;;;;;5028343;28;20194;-92
2023/11/05 04:28:04;;;;;;;0.10;0.10;;;9.60;99.90;;;;;;5013055;28;20197;-92
2023/11/05 04:30:30;;;;;;;0.30;0.30;;;9.60;99.90;;;;;;4995724;28;20230;-92
2023/11/05 04:32:55;;;;;;;9.23;1.20;;;9.70;99.90;;;;;;4995811;28;20216;-93
2023/11/05 04:35:21;;;;;;;1.00;0.93;;;9.70;99.90;;;;;;4995123;28;20223;-92
2023/11/05 04:37:47;;;;;;;0.40;0.33;;;9.70;99.90;;;;;;4995353;28;20210;-91
2023/11/05 04:40:13;;;;;;;0.93;0.93;;;9.80;99.90;;;;;;5027557;28;20187;-92
2023/11/05 04:42:38;;;;;;;0.60;0.60;;;9.80;99.90;;;;;;4994908;28;20225;-91
2023/11/05 04:45:05;;;;;;;0.90;0.20;;;9.80;99.90;;;;;;4995553;28;20282;-91
2023/11/05 04:47:30;;;;;;;0.40;0.40;;;9.80;99.90;;;;;;5012376;28;20595;-92
2023/11/05 04:49:56;;;;;;;0.57;0.57;;;9.80;99.90;;;;;;5011815;28;20240;-90
2023/11/05 04:52:23;;;;;;;1.23;0.87;;;9.80;99.90;;;;;;4995595;28;20293;-92
2023/11/05 04:54:49;;;;;;;1.60;1.50;;;9.80;99.90;;;;;;4995860;28;20236;-92
2023/11/05 04:57:15;;;;;;;1.90;0.53;;;9.70;99.90;;;;;;5027725;28;20292;-91
2023/11/05 04:59:43;;;;;;;1.47;1.37;;;9.70;99.90;;;;;;4996382;28;20214;-92
2023/11/05 05:02:09;;;;;;;0.47;0.47;;;9.80;99.90;;;;;;5012610;28;20219;-91
2023/11/05 05:04:35;;;;;;;5.93;2.13;;;9.80;99.90;;;;;;4995197;28;20295;-90
2023/11/05 05:07:00;;;;;;;0.20;0.20;;;9.80;99.90;;;;;;4996146;28;20977;-92
2023/11/05 05:09:26;;;;;;;0.50;0.50;;;9.80;99.90;;;;;;4995510;28;20217;-91
2023/11/05 05:11:52;;;;;;;6.97;0.93;;;9.90;99.90;;;;;;4995835;28;20214;-93
2023/11/05 05:14:18;;;;;;;4.10;0.50;;;9.90;99.90;;;;;;5028682;28;20225;-92
2023/11/05 05:16:43;;;;;;;3.13;0.80;;;9.90;99.90;;;;;;4995371;28;20182;-92
2023/11/05 05:19:10;;;;;;;1.37;0.77;;;10.00;99.90;;;;;;4996282;28;20666;-91
2023/11/05 05:21:46;;;;;;;4.43;2.53;;;10.10;99.90;;;;;;5012801;28;20228;-91
2023/11/05 05:24:12;;;;;;;0.20;0.20;;;10.10;99.90;;;;;;5023658;28;20213;-92
2023/11/05 05:26:38;;;;;;;2.23;0.63;;;10.10;99.90;;;;;;5032285;28;20222;-92
2023/11/05 05:29:04;;;;;;;1.90;1.70;;;10.20;99.90;;;;;;4998085;28;20566;-91
2023/11/05 05:31:33;;;;;;;8.50;1.60;;;10.20;99.90;;;;;;5032197;28;20195;-93
2023/11/05 05:33:59;;;;;;;3.30;0.57;;;10.30;99.90;;;;;;5015070;28;20210;-92
2023/11/05 05:36:25;;;;;;;0.77;0.70;;;10.30;99.90;;;;;;5031318;28;20214;-92
2023/11/05 05:38:54;;;;;;;0.57;0.57;;;10.40;99.90;;;;;;4999589;28;20225;-92
2023/11/05 05:41:20;;;;;;;0.20;0.20;;;10.40;99.90;;;;;;5015515;28;20246;-92
2023/11/05 05:43:46;;;;;;;0.50;0.50;;;10.40;99.90;;;;;;5023001;28;20241;-92
2023/11/05 05:46:15;;;;;;;2.10;0.33;;;10.50;99.90;;;;;;5023510;28;20190;-91
2023/11/05 05:48:41;;;;;;;1.30;1.20;;;10.50;99.90;;;;;;5046798;28;21204;-91
2023/11/05 05:51:09;;;;;;;0.40;0.40;;;10.50;99.90;;;;;;5015084;28;20300;-92
2023/11/05 05:53:35;;;;;;;0.70;0.70;;;10.60;99.90;;;;;;5014881;28;20683;-92
2023/11/05 05:56:01;;;;;;;0.67;0.40;;;10.60;99.90;;;;;;5031216;28;20213;-92
2023/11/05 05:58:27;;;;;;;0.60;0.60;;;10.60;99.90;;;;;;5000502;28;20210;-92
2023/11/05 06:00:52;;;;;;;0.50;0.50;;;10.60;99.90;;;;;;5048408;28;20225;-91
2023/11/05 06:03:18;;;;;;;1.40;1.27;;;10.60;99.90;;;;;;4998583;28;20266;-92
2023/11/05 06:05:44;;;;;;;0.17;0.17;;;10.60;99.90;;;;;;4997176;28;20242;-91
2023/11/05 06:08:10;;;;;;;1.20;1.17;;;10.60;99.90;;;;;;5022904;28;20674;-91
2023/11/05 06:10:36;;;;;;;0.50;0.50;;;10.60;99.90;;;;;;4998559;28;20174;-92
2023/11/05 06:13:01;;;;;;;0.37;0.30;;;10.60;99.90;;;;;;4999906;28;20186;-92
2023/11/05 06:15:27;;;;;;;0.30;0.30;;;10.60;99.90;;;;;;4998185;28;20617;-92
2023/11/05 06:17:53;;;;;;;0.40;0.40;;;10.60;99.90;;;;;;4999591;28;20306;-92
2023/11/05 06:20:19;;;;;;;3.90;0.87;;;10.60;99.90;;;;;;4999177;28;20249;-92
2023/11/05 06:22:44;;;;;;;9.47;1.27;;;10.60;99.90;;;;;;5015505;28;20186;-92
2023/11/05 06:25:10;;;;;;;0.53;0.53;;;10.60;99.90;;;;;;4999047;28;20182;-91
2023/11/05 06:27:41;;;;;;;1.40;0.40;;;10.60;99.90;;;;;;4997349;28;20237;-93
2023/11/05 06:30:10;;;;;;;0.63;0.50;;;10.60;99.90;;;;;;5030819;28;20256;-93
2023/11/05 06:32:37;;;;;;;0.37;0.37;;;10.60;99.90;;;;;;5046554;28;20241;-92
2023/11/05 06:35:02;;;;;;;0.60;0.60;;;10.50;99.90;;;;;;5013636;28;20235;-93
2023/11/05 06:37:30;;;;;;;0.60;0.60;;;10.50;99.90;;;;;;5030437;28;20194;-92
2023/11/05 06:39:57;;;;;;;0.67;0.67;;;10.50;99.90;;;;;;4998653;28;20273;-92
2023/11/05 06:42:22;;;;;;;2.93;1.13;;;10.50;99.90;;;;;;5013298;28;20206;-92
2023/11/05 06:44:48;;;;;;;0.50;0.20;;;10.40;99.90;;;;;;4997677;28;20257;-93
2023/11/05 06:47:14;;;;;;;0.73;0.43;;;10.40;99.90;;;;;;5030838;28;20206;-92
2023/11/05 06:49:40;;;;;;;1.00;0.80;;;10.40;99.90;;;;;;4997582;28;20536;-92
2023/11/05 06:52:09;;;;;;;0.67;0.67;;;10.40;99.90;;;;;;4998674;28;20190;-93
2023/11/05 06:54:35;;;;;;;1.87;1.70;;;10.40;99.90;;;;;;5030049;28;20218;-92
2023/11/05 06:57:03;;;;;;;2.93;1.43;;;10.40;99.90;;;;;;5013546;28;21166;-91
2023/11/05 06:59:29;;;;;;;0.40;0.40;;;10.50;99.90;;;;;;5030417;28;20798;-92
2023/11/05 07:01:55;;;;;;;0.63;0.47;;;10.50;99.90;;;;;;5015100;28;20316;-93
2023/11/05 07:04:21;;;;;;;3.10;3.00;;;10.60;99.90;;;;;;5014357;28;20197;-92
2023/11/05 07:06:47;;;;;;;0.93;0.73;;;10.50;99.90;;;;;;5012755;28;20215;-92
2023/11/05 07:09:13;;;;;;;1.07;0.50;;;10.60;99.90;;;;;;5013973;28;20702;-92
2023/11/05 07:11:40;;;;;;;4.43;2.57;;;10.60;99.90;;;;;;5019549;28;20246;-93
2023/11/05 07:14:06;;;;;;;1.40;1.33;;;10.60;99.90;;;;;;5030932;28;20214;-90
2023/11/05 07:16:32;;;;;;;1.60;0.63;;;10.70;99.90;;;;;;5013390;28;20690;-88
2023/11/05 07:18:58;;;;;;;0.53;0.53;;;10.70;99.90;;;;;;5033952;28;20209;-92
2023/11/05 07:21:24;;;;;;;1.20;0.80;;;10.70;99.90;;;;;;5012653;28;20829;-91
2023/11/05 07:23:50;;;;;;;0.37;0.37;;;10.80;99.90;;;;;;5030255;28;20283;-91
2023/11/05 07:26:16;;;;;;;1.80;1.70;;;10.80;99.90;;;;;;4996434;28;20210;-90
2023/11/05 07:28:42;;;;;;;2.70;0.83;;;10.80;99.90;;;;;;5013977;28;20186;-91
2023/11/05 07:31:13;;;;;;;3.20;0.87;;;10.90;99.90;;;;;;5013511;28;20202;-92
2023/11/05 07:33:39;;;;;;;0.33;0.33;;;10.90;99.90;;;;;;5028868;28;20226;-91
2023/11/05 07:36:05;;;;;;;0.33;0.33;;;10.90;99.90;;;;;;5012826;28;20242;-89
2023/11/05 07:38:30;;;;;;;0.30;0.30;;;10.90;99.90;;;;;;4996715;28;20234;-90
2023/11/05 07:40:56;;;;;;;0.30;0.30;;;10.90;99.90;;;;;;5015607;28;20273;-89
2023/11/05 07:43:22;;;;;;;0.57;0.57;;;10.90;99.90;;;;;;5021687;28;20923;-89
2023/11/05 07:45:48;;;;;;;1.07;0.50;;;11.00;99.90;;;;;;4996212;28;20689;-91
2023/11/05 07:48:13;;;;;;;0.40;0.40;;;10.90;99.90;;;;;;4996962;28;20226;-92
2023/11/05 07:50:46;;;;;;;4.93;1.03;;;10.90;99.90;;;;;;5001533;28;20220;-94
2023/11/05 07:53:11;;;;;;;0.10;0.10;;;11.00;99.90;;;;;;5032933;28;20210;-90
2023/11/05 07:55:39;;;;;;;0.40;0.37;;;11.00;99.90;;;;;;5035009;28;20182;-94
2023/11/05 07:58:07;;;;;;;0.20;0.20;;;11.00;99.90;;;;;;5032478;28;20198;-92
2023/11/05 08:00:33;;;;;;;1.57;0.87;;;11.10;99.90;;;;;;4997549;28;20241;-94
2023/11/05 08:03:06;;;;;;;1.03;1.03;;;11.10;99.90;;;;;;5048248;28;20226;-94
2023/11/05 08:05:33;;;;;;;0.63;0.63;;;11.10;99.90;;;;;;5036829;28;20217;-94
2023/11/05 08:07:59;;;;;;;0.60;0.60;;;11.10;99.90;;;;;;5012830;28;20222;-89
2023/11/05 08:10:25;;;;;;;0.30;0.30;;;11.20;99.90;;;;;;4997985;28;20181;-93
2023/11/05 08:12:51;;;;;;;0.40;0.40;;;11.20;99.90;;;;;;4998645;28;20206;-90
2023/11/05 08:15:17;;;;;;;0.40;0.40;;;11.20;99.90;;;;;;5012826;28;20283;-93
2023/11/05 08:17:43;;;;;;;1.10;1.10;;;11.30;99.90;;;;;;5011789;28;20714;-88
2023/11/05 08:20:11;;;;;;;0.60;0.60;;;11.20;99.90;;;;;;4996999;28;20233;-92
2023/11/05 08:22:41;;;;;;;1.20;0.47;;;11.30;99.90;;;;;;5020613;28;20663;-91
2023/11/05 08:25:09;;;;;;;2.57;1.57;;;11.20;99.90;;;;;;4997393;28;20244;-89
2023/11/05 08:27:35;;;;;;;3.03;2.03;;;11.20;99.90;;;;;;4995651;28;20218;-90
2023/11/05 08:30:05;;;;;;;0.27;0.27;;;11.30;99.90;;;;;;4997465;28;20586;-91
2023/11/05 08:32:30;;;;;;;2.30;0.90;;;11.30;99.90;;;;;;5011885;28;20264;-90
2023/11/05 08:34:56;;;;;;;0.57;0.50;;;11.40;99.90;;;;;;4995950;28;20219;-91
2023/11/05 08:37:25;;;;;;;1.63;1.37;;;11.40;99.90;;;;;;4997971;28;20580;-93
2023/11/05 08:39:51;;;;;;;1.10;0.97;;;11.50;99.90;;;;;;5013039;28;20262;-92
2023/11/05 08:42:17;;;;;;;0.97;0.97;;;11.60;99.90;;;;;;5019723;28;20257;-89
2023/11/05 08:44:43;;;;;;;0.43;0.43;;;11.60;99.90;;;;;;5012772;28;20226;-90
2023/11/05 08:47:09;;;;;;;1.80;0.97;;;11.60;99.90;;;;;;5012539;28;20701;-90
2023/11/05 08:49:35;;;;;;;2.00;1.83;;;11.70;99.90;;;;;;4996317;28;20312;-90
2023/11/05 08:52:01;;;;;;;0.97;0.97;;;11.70;99.90;;;;;;4997081;28;20611;-90
2023/11/05 08:54:27;;;;;;;0.73;0.73;;;11.70;99.90;;;;;;4995270;28;20259;-90
2023/11/05 08:56:58;;;;;;;1.33;1.00;;;11.80;99.90;;;;;;5000225;28;20277;-91
2023/11/05 08:59:26;;;;;;;2.37;0.57;;;11.80;99.90;;;;;;5050807;28;20283;-94
2023/11/05 09:01:52;;;;;;;0.77;0.77;;;12.00;99.90;;;;;;5001804;28;20193;-94
2023/11/05 09:04:18;;;;;;;3.50;1.63;;;12.00;99.90;;;;;;5005638;28;20187;-94
2023/11/05 09:06:45;;;;;;;2.03;1.90;;;12.00;99.90;;;;;;5017516;28;20316;-94
2023/11/05 09:09:11;;;;;;;2.87;1.47;;;12.10;99.90;;;;;;5032733;28;20222;-95
2023/11/05 09:11:37;;;;;;;1.83;0.93;;;12.10;99.90;;;;;;5016333;28;20233;-89
2023/11/05 09:14:04;;;;;;;3.20;1.17;;;12.10;99.90;;;;;;5028346;28;20226;-94
2023/11/05 09:16:29;;;;;;;0.73;0.50;;;12.10;99.90;;;;;;5029782;28;20186;-95
2023/11/05 09:18:55;;;;;;;6.23;0.97;;;12.20;99.90;;;;;;5014124;28;20596;-94
2023/11/05 09:21:22;;;;;;;0.87;0.87;;;12.20;99.90;;;;;;5046457;28;20209;-93
2023/11/05 09:23:48;;;;;;;2.03;1.43;;;12.20;99.90;;;;;;5045681;28;20225;-96
2023/11/05 09:26:14;;;;;;;1.40;1.30;;;12.40;99.90;;;;;;5030199;28;20210;-96
2023/11/05 09:28:40;;;;;;;2.80;0.97;;;12.50;99.90;;;;;;5002743;28;20198;-93
2023/11/05 09:31:06;;;;;;;1.13;1.00;;;12.60;99.90;;;;;;5029688;28;20192;-92
2023/11/05 09:33:31;;;;;;;1.77;1.13;;;12.80;99.90;;;;;;5010933;28;20218;-93
2023/11/05 09:35:57;;;;;;;1.17;1.07;;;12.80;99.90;;;;;;5002454;28;20218;-93
2023/11/05 09:38:23;;;;;;;1.53;1.43;;;12.90;99.90;;;;;;4996401;28;21215;-94
2023/11/05 09:40:49;;;;;;;3.47;1.47;;;12.80;99.90;;;;;;5027418;28;20194;-96
2023/11/05 09:43:17;;;;;;;2.73;2.23;;;12.80;99.90;;;;;;5012214;28;20200;-92
2023/11/05 09:45:48;;;;;;;3.20;1.13;;;12.90;99.90;;;;;;4995541;28;20209;-96
2023/11/05 09:48:14;;;;;;;2.00;1.83;;;13.00;99.90;;;;;;5010989;28;20230;-94
2023/11/05 09:50:41;;;;;;;1.63;1.53;;;13.00;99.90;;;;;;4997167;28;20252;-93
2023/11/05 09:53:10;;;;;;;1.57;1.47;;;13.00;99.90;;;;;;5013277;28;21237;-96
2023/11/05 09:55:39;;;;;;;4.83;1.70;;;12.90;99.90;;;;;;5012780;28;20178;-94
2023/11/05 09:58:06;;;;;;;1.90;1.60;;;13.00;99.90;;;;;;5045910;28;20267;-94
2023/11/05 10:00:32;;;;;;;1.23;1.13;;;13.10;99.90;;;;;;5027159;28;20206;-93
2023/11/05 10:03:03;;;;;;;4.27;2.53;;;13.20;99.90;;;;;;5027143;28;20253;-94
2023/11/05 10:05:39;;;;;;;1.57;1.43;;;13.30;99.90;;;;;;5027825;28;20715;-95
2023/11/05 10:08:06;;;;;;;1.03;0.90;;;13.20;99.90;;;;;;5015877;28;20229;-92
2023/11/05 10:10:33;;;;;;;2.03;1.37;;;13.30;99.90;;;;;;5035285;28;20197;-94
2023/11/05 10:12:59;;;;;;;1.50;1.30;;;13.40;99.90;;;;;;5000156;28;20334;-94
2023/11/05 10:15:25;;;;;;;3.57;2.27;;;13.50;99.90;;;;;;5031446;28;20312;-94
2023/11/05 10:17:55;;;;;;;3.37;0.97;;;13.40;99.90;;;;;;5015889;28;20218;-93
2023/11/05 10:20:23;;;;;;;17.57;1.73;;;13.40;99.90;;;;;;5032120;28;20222;-94
2023/11/05 10:23:06;;;;;;;0.80;0.80;;;13.20;99.90;;;;;;5031912;28;20198;-94
2023/11/05 10:25:32;;;;;;;2.27;1.80;;;13.30;99.90;;;;;;5016611;28;20193;-96
2023/11/05 10:27:59;;;;;;;2.60;2.23;;;13.40;99.90;;;;;;5017572;28;20225;-94
2023/11/05 10:30:26;;;;;;;12.27;1.43;;;13.60;99.90;;;;;;5032914;28;20317;-93
2023/11/05 10:32:53;;;;;;;3.03;1.87;;;13.60;99.90;;;;;;5032456;28;20217;-96
2023/11/05 10:35:27;;;;;;;6.17;2.77;;;13.80;99.90;;;;;;5002180;28;20222;-93
2023/11/05 10:37:54;;;;;;;2.10;1.20;;;13.90;99.90;;;;;;5047611;28;20290;-96
2023/11/05 10:40:20;;;;;;;2.70;1.87;;;14.00;99.90;;;;;;4999163;28;20214;-96
2023/11/05 10:42:50;;;;;;;2.33;1.57;;;14.00;99.90;;;;;;5030368;28;20214;-96
2023/11/05 10:45:18;;;;;;;3.20;1.60;;;14.00;99.90;;;;;;4997128;28;20285;-96
2023/11/05 10:47:50;;;;;;;3.90;1.13;;;14.10;99.90;;;;;;5030677;28;20218;-95
2023/11/05 10:50:28;;;;;;;3.50;2.13;;;14.20;99.90;;;;;;5032513;28;20218;-96
2023/11/05 10:52:59;;;;;;;3.33;2.23;;;14.00;99.90;;;;;;5031415;28;20222;-96
2023/11/05 10:55:34;;;;;;;3.13;2.03;;;14.10;99.90;;;;;;5015579;28;20582;-95
2023/11/05 10:58:05;;;;;;;2.53;1.97;;;14.10;99.90;;;;;;5039133;28;20263;-95
2023/11/05 11:00:45;;;;;;;2.67;1.27;;;13.90;99.90;;;;;;5031977;28;20293;-92
2023/11/05 11:03:12;;;;;;;11.03;2.97;;;13.80;99.90;;;;;;5013898;28;20250;-95
2023/11/05 11:05:44;;;;;;;2.83;2.03;;;13.70;99.90;;;;;;5013801;28;20585;-96
2023/11/05 11:08:13;;;;;;;1.80;1.70;;;13.70;99.90;;;;;;5039541;28;20211;-94
2023/11/05 11:10:41;;;;;;;1.27;1.27;;;13.50;99.90;;;;;;5031095;28;20198;-96
2023/11/05 11:13:11;;;;;;;2.97;2.67;;;13.40;99.90;;;;;;5048774;28;20191;-95
2023/11/05 11:15:38;;;;;;;2.20;2.10;;;13.30;99.90;;;;;;5014102;28;20267;-94
2023/11/05 11:18:05;;;;;;;2.53;1.47;;;13.20;99.90;;;;;;5029481;28;20226;-95
2023/11/05 11:20:32;;;;;;;3.53;2.10;;;13.20;99.90;;;;;;5030561;28;20217;-96
2023/11/05 11:23:05;;;;;;;2.63;1.77;;;13.20;99.90;;;;;;4999260;28;20206;-93
2023/11/05 11:25:35;;;;;;;1.97;1.03;;;13.30;99.90;;;;;;5050402;28;20545;-95
2023/11/05 11:28:08;;;;;;;1.50;1.40;;;13.30;99.90;;;;;;5014028;28;20210;-92
2023/11/05 11:30:34;;;;;;;3.37;1.47;;;13.30;99.90;;;;;;5018997;28;20245;-93
2023/11/05 11:32:59;;;;;;;0.60;0.60;;;13.40;99.90;;;;;;4974508;28;20220;-93
2023/11/05 11:35:27;;;;;;;4.33;2.90;;;13.30;99.90;;;;;;4984208;28;20301;-95
2023/11/05 11:37:52;;;;;;;2.83;1.93;;;13.30;99.90;;;;;;5001980;28;20684;-93
2023/11/05 11:40:18;;;;;;;3.33;2.27;;;13.30;99.90;;;;;;5006943;28;20199;-95
2023/11/05 11:42:44;;;;;;;1.83;1.73;;;13.40;99.90;;;;;;4987401;28;20688;-93
2023/11/05 11:45:10;;;;;;;3.47;1.40;;;13.40;99.90;;;;;;5011830;28;20310;-94
2023/11/05 11:47:36;;;;;;;6.80;3.00;;;13.30;99.90;;;;;;5007320;28;20221;-95
2023/11/05 11:50:09;;;;;;;1.87;1.73;;;13.30;99.90;;;;;;4991712;28;20247;-94
2023/11/05 11:52:53;;;;;;;2.23;1.30;;;13.30;99.90;;;;;;4974901;28;20238;-92
2023/11/05 11:55:20;;;;;;;1.43;1.33;;;13.30;99.90;;;;;;4975838;28;20179;-93
2023/11/05 11:57:46;;;;;;;12.97;1.03;;;13.30;99.90;;;;;;4981876;28;20211;-94
2023/11/05 12:00:24;;;;;;;3.33;1.00;;;13.10;99.90;;;;;;4981059;28;20215;-96
2023/11/05 12:02:54;;;;;;;1.13;1.13;;;13.10;99.90;;;;;;5025895;28;20214;-94
2023/11/05 12:05:20;;;;;;;2.57;1.67;;;13.10;99.90;;;;;;5001412;28;20234;-94
2023/11/05 12:07:48;;;;;;;1.07;0.90;;;13.20;99.90;;;;;;4991900;28;20183;-93
2023/11/05 12:10:19;;;;;;;1.40;1.30;;;13.10;99.90;;;;;;4999496;28;20183;-94
2023/11/05 12:12:48;;;;;;;1.73;1.63;;;13.10;99.90;;;;;;4983476;28;20289;-94
2023/11/05 12:15:15;;;;;;;4.43;2.20;;;13.20;99.90;;;;;;4980216;28;20318;-94
2023/11/05 12:17:46;;;;;;;1.57;1.33;;;13.20;99.90;;;;;;4986797;28;20774;-95
2023/11/05 12:20:15;;;;;;;1.23;1.13;;;13.00;99.90;;;;;;4983293;28;20580;-93
2023/11/05 12:22:42;;;;;;;2.90;1.60;;;13.10;99.90;;;;;;4984213;28;20215;-93
2023/11/05 12:25:10;;;;;;;1.37;1.27;;;13.00;99.90;;;;;;4997549;28;20178;-93
2023/11/05 12:27:48;;;;;;;1.70;1.60;;;13.10;99.90;;;;;;4982664;28;20176;-91
2023/11/05 12:30:25;;;;;;;1.47;1.37;;;13.10;99.90;;;;;;5014863;28;20701;-96
2023/11/05 12:32:52;;;;;;;3.00;2.60;;;13.10;99.90;;;;;;5034320;28;20211;-93
2023/11/05 12:35:18;;;;;;;1.50;1.40;;;13.00;99.90;;;;;;5007314;28;20214;-91
2023/11/05 12:37:44;;;;;;;2.37;2.17;;;13.00;99.90;;;;;;5006648;28;20206;-92
2023/11/05 12:40:10;;;;;;;2.00;1.73;;;12.90;99.90;;;;;;5002627;28;20285;-92
2023/11/05 12:42:38;;;;;;;6.57;2.23;;;13.00;99.90;;;;;;5007160;28;20195;-90
2023/11/05 12:45:05;;;;;;;2.40;1.50;;;13.00;99.90;;;;;;5002258;28;20647;-92
2023/11/05 12:47:31;;;;;;;2.40;2.20;;;12.90;99.90;;;;;;4996718;28;20297;-91